KMRF/MRF METAR and TAF weather

Enter ICAO airport designator
Station Type Date Time Source
KMRF METAR 2019/04/21 21:56 UTC NOAA

KMRF 212156Z AUTO 22009G18KT 10SM CLR 29/M07 A3000 RMK AO2 SLP105 T02941067


Station Type Date Time Source
KMRF Decoded METAR 2019/04/21 21:56 UTC NOAA

Marfa, TX, United States (KMRF) 30-22N 104-01W 1481M
Apr 21, 2019 - 05:56 PM EDT / 2019.04.21 2156 UTC
Wind: from the SW (220 degrees) at 10 MPH (9 KT) gusting to 21 MPH (18 KT):0
Visibility: 10 mile(s):0
Sky conditions: clear
Temperature: 84.9 F (29.4 C)
Dew Point: 19.9 F (-6.7 C)
Relative Humidity: 9%
Pressure (altimeter): 30 in. Hg (1015 hPa)
ob: KMRF 212156Z AUTO 22009G18KT 10SM CLR 29/M07 A3000 RMK AO2 SLP105 T02941067
cycle: 22

Station Type Date Time Source
KMRF TAF UTC NOAA

Error!

Example: see airport list